createdAt,value
2019-05-18T00:00:34.804Z,4.80
2019-05-18T00:03:16.485Z,4.63
2019-05-18T00:38:01.459Z,6.13
2019-05-18T00:40:50.688Z,5.03
2019-05-18T00:43:40.295Z,8.07
2019-05-18T00:46:12.305Z,4.73
2019-05-18T00:49:02.019Z,6.53
2019-05-18T00:51:51.323Z,5.87
2019-05-18T00:54:40.885Z,7.37
2019-05-18T00:57:31.031Z,6.03
2019-05-18T01:00:01.337Z,5.60
2019-05-18T01:02:34.934Z,4.63
2019-05-18T01:05:24.162Z,5.40
2019-05-18T01:08:13.710Z,4.90
2019-05-18T01:11:02.962Z,4.90
2019-05-18T01:13:52.247Z,5.93
2019-05-18T01:16:41.767Z,5.53
2019-05-18T01:19:49.886Z,6.23
2019-05-18T01:22:20.112Z,5.27
2019-05-18T01:25:57.613Z,5.47
2019-05-18T01:28:50.485Z,6.27
2019-05-18T01:31:23.041Z,6.20
2019-05-18T01:34:12.287Z,6.13
2019-05-18T01:39:50.711Z,4.40
2019-05-18T01:42:39.922Z,5.83
2019-05-18T01:45:49.881Z,4.47
2019-05-18T01:48:39.132Z,5.43
2019-05-18T01:51:28.637Z,4.93
2019-05-18T01:54:17.865Z,5.60
2019-05-18T02:00:14.308Z,6.27
2019-05-18T02:02:44.516Z,5.60
2019-05-18T02:05:34.058Z,5.27
2019-05-18T02:08:42.539Z,4.53
2019-05-18T02:11:12.775Z,5.20
2019-05-18T02:14:02.175Z,6.27
2019-05-18T02:17:14.580Z,6.07
2019-05-18T02:20:04.282Z,4.87
2019-05-18T02:22:34.557Z,5.90
2019-05-18T02:25:23.895Z,5.70
2019-05-18T02:28:13.130Z,5.40
2019-05-18T02:31:02.698Z,4.63
2019-05-18T02:33:51.923Z,5.60
2019-05-18T02:36:41.557Z,4.20
2019-05-18T02:39:11.886Z,4.50
2019-05-18T02:42:01.501Z,5.50
2019-05-18T02:44:31.957Z,7.20
2019-05-18T02:47:21.574Z,4.97
2019-05-18T02:52:41.048Z,4.47
2019-05-18T02:55:30.363Z,5.03
2019-05-18T02:58:19.714Z,6.10
2019-05-18T03:01:01.237Z,4.73
2019-05-18T03:03:31.860Z,5.13
2019-05-18T03:06:21.139Z,5.70
2019-05-18T03:08:53.170Z,4.77
2019-05-18T03:12:06.632Z,6.70
2019-05-18T03:14:55.984Z,5.03
2019-05-18T03:17:26.196Z,5.10
2019-05-18T03:19:56.744Z,5.03
2019-05-18T03:22:27.022Z,5.00
2019-05-18T03:25:16.194Z,6.47
2019-05-18T03:27:46.506Z,5.03
2019-05-18T03:30:18.141Z,4.87
2019-05-18T03:32:48.427Z,5.03
2019-05-18T03:35:37.984Z,5.23
2019-05-18T03:38:27.258Z,6.17
2019-05-18T03:47:11.011Z,4.90
2019-05-18T03:49:41.580Z,4.43
2019-05-18T03:52:11.898Z,6.77
2019-05-18T03:55:01.520Z,5.50
2019-05-18T03:57:50.803Z,6.03
2019-05-18T04:00:24.015Z,6.57
2019-05-18T04:03:05.559Z,5.80
2019-05-18T04:08:33.991Z,6.50
2019-05-18T04:11:15.505Z,6.00
2019-05-18T04:13:57.204Z,8.63
2019-05-18T04:16:39.286Z,5.10
2019-05-18T04:19:21.500Z,5.97
2019-05-18T04:22:03.250Z,6.57
2019-05-18T04:24:45.007Z,7.70
2019-05-18T04:27:15.930Z,6.23
2019-05-18T04:30:05.601Z,5.60
2019-05-18T04:32:55.154Z,6.80
2019-05-18T04:35:26.485Z,6.20
2019-05-18T04:37:56.803Z,8.43
2019-05-18T04:40:46.075Z,8.87
2019-05-18T04:43:16.432Z,9.33
2019-05-18T04:45:48.826Z,7.27
2019-05-18T04:48:38.195Z,6.77
2019-05-18T04:51:08.593Z,6.37
2019-05-18T04:53:58.457Z,6.63
2019-05-18T04:56:47.707Z,9.03
2019-05-18T04:59:19.177Z,8.00
2019-05-18T05:02:08.498Z,8.07
2019-05-18T05:04:57.862Z,7.10
2019-05-18T05:07:28.150Z,5.87
2019-05-18T05:10:17.436Z,5.63
2019-05-18T05:13:06.668Z,6.00
2019-05-18T05:15:56.257Z,6.10
2019-05-18T05:18:47.656Z,6.97
2019-05-18T05:21:17.892Z,9.27
2019-05-18T05:30:47.878Z,6.80
2019-05-18T05:33:37.269Z,6.80
2019-05-18T05:39:41.035Z,7.07
2019-05-18T05:42:11.384Z,6.03
2019-05-18T05:45:00.679Z,7.97
2019-05-18T05:47:30.889Z,6.87
2019-05-18T05:50:34.703Z,7.17
2019-05-18T05:52:52.591Z,5.33
2019-05-18T05:55:22.818Z,9.73
2019-05-18T05:57:56.154Z,6.80
2019-05-18T06:00:26.801Z,7.17
2019-05-18T06:02:57.011Z,5.93
2019-05-18T06:05:27.306Z,7.07
2019-05-18T06:07:57.495Z,6.83
2019-05-18T06:10:28.180Z,10.00
2019-05-18T06:12:58.448Z,7.17
2019-05-18T06:15:30.817Z,6.33
2019-05-18T06:18:19.950Z,5.57
2019-05-18T06:20:51.757Z,8.87
2019-05-18T06:23:23.802Z,4.67
2019-05-18T06:25:54.722Z,6.77
2019-05-18T06:28:43.981Z,6.27
2019-05-18T06:31:33.790Z,7.97
2019-05-18T06:34:06.987Z,6.40
2019-05-18T06:40:10.107Z,10.30
2019-05-18T06:43:00.642Z,7.20
2019-05-18T06:45:30.951Z,6.47
2019-05-18T06:48:02.558Z,6.17
2019-05-18T06:50:35.901Z,6.53
2019-05-18T06:53:25.460Z,6.67
2019-05-18T06:56:14.692Z,6.63
2019-05-18T06:59:03.942Z,8.47
2019-05-18T07:01:54.322Z,6.10
2019-05-18T07:04:44.854Z,9.07
2019-05-18T07:07:34.152Z,4.90
2019-05-18T07:10:23.717Z,6.93
2019-05-18T07:16:24.451Z,8.47
2019-05-18T07:19:03.046Z,7.30
2019-05-18T07:22:12.741Z,6.50
2019-05-18T07:25:01.996Z,6.70
2019-05-18T07:27:33.496Z,7.03
2019-05-18T07:30:09.513Z,7.60
2019-05-18T07:32:58.884Z,7.73
2019-05-18T07:35:29.166Z,7.73
2019-05-18T07:38:03.568Z,7.20
2019-05-18T07:43:15.064Z,6.57
2019-05-18T07:45:45.374Z,6.10
2019-05-18T07:48:15.610Z,8.07
2019-05-18T07:50:48.810Z,6.50
2019-05-18T07:53:20.287Z,7.63
2019-05-18T07:56:14.084Z,6.17
2019-05-18T07:59:03.354Z,7.53
2019-05-18T08:04:49.373Z,7.57
2019-05-18T08:07:56.300Z,6.63
2019-05-18T08:10:11.221Z,10.50
2019-05-18T08:13:06.760Z,7.80
2019-05-18T08:15:56.323Z,8.70
2019-05-18T08:24:45.161Z,7.93
2019-05-18T08:27:15.428Z,5.80
2019-05-18T08:29:47.305Z,6.20
2019-05-18T08:32:18.933Z,8.60
2019-05-18T08:35:08.389Z,8.17
2019-05-18T08:37:57.706Z,6.00
2019-05-18T08:40:31.062Z,7.47
2019-05-18T08:48:39.001Z,5.80
2019-05-18T08:51:28.310Z,8.87
2019-05-18T09:00:30.849Z,6.00
2019-05-18T09:03:02.392Z,6.13
2019-05-18T09:05:51.956Z,6.97
2019-05-18T09:08:41.210Z,6.50
2019-05-18T09:11:11.455Z,8.50
2019-05-18T09:14:00.967Z,6.10
2019-05-18T09:17:10.576Z,6.30
2019-05-18T09:20:02.986Z,6.17
2019-05-18T09:22:33.279Z,5.57
2019-05-18T09:25:26.465Z,4.60
2019-05-18T09:27:56.929Z,5.47
2019-05-18T09:30:27.315Z,5.03
2019-05-18T09:36:07.872Z,8.80
2019-05-18T09:39:16.043Z,6.57
2019-05-18T09:42:05.766Z,5.33
2019-05-18T09:44:57.799Z,5.90
2019-05-18T09:47:49.830Z,4.43
2019-05-18T09:50:44.979Z,5.33
2019-05-18T09:53:35.439Z,5.60
2019-05-18T10:00:15.717Z,5.97
2019-05-18T10:03:04.906Z,5.67
2019-05-18T10:05:36.799Z,5.33
2019-05-18T10:14:41.160Z,6.57
2019-05-18T10:17:11.350Z,6.07
2019-05-18T10:22:59.098Z,6.87
2019-05-18T10:28:32.200Z,5.83
2019-05-18T10:31:03.912Z,5.87
2019-05-18T10:33:34.234Z,8.60
2019-05-18T10:36:24.047Z,7.30
2019-05-18T10:38:54.353Z,5.50
2019-05-18T10:42:35.969Z,5.07
2019-05-18T10:44:40.151Z,6.83
2019-05-18T10:47:29.503Z,5.97
2019-05-18T10:50:18.794Z,5.80
2019-05-18T10:52:49.100Z,5.27
2019-05-18T10:55:38.666Z,6.20
2019-05-18T10:58:48.602Z,5.43
2019-05-18T11:01:39.199Z,6.27
2019-05-18T11:04:36.026Z,6.40
2019-05-18T11:07:06.734Z,8.83
2019-05-18T11:09:56.003Z,5.30
2019-05-18T11:12:29.071Z,5.90
2019-05-18T11:14:59.888Z,6.20
2019-05-18T11:17:47.781Z,6.10
2019-05-18T11:20:20.445Z,5.07
2019-05-18T11:23:09.981Z,4.30
2019-05-18T11:25:59.373Z,5.07
2019-05-18T11:29:09.875Z,4.63
2019-05-18T11:32:01.883Z,7.53
2019-05-18T11:34:32.345Z,4.67
2019-05-18T11:37:21.756Z,4.40
2019-05-18T11:39:55.315Z,4.37
2019-05-18T11:42:27.731Z,3.50
2019-05-18T11:45:17.791Z,3.27
2019-05-18T12:03:00.980Z,5.13
2019-05-18T12:06:23.093Z,5.37
2019-05-18T12:08:43.970Z,5.43
2019-05-18T12:14:24.161Z,4.40
2019-05-18T12:17:16.319Z,3.47
2019-05-18T12:20:20.195Z,4.20
2019-05-18T12:22:57.096Z,5.43
2019-05-18T12:26:05.287Z,4.20
2019-05-18T12:28:57.252Z,4.13
2019-05-18T12:31:49.223Z,3.60
2019-05-18T12:34:52.344Z,3.63
2019-05-18T12:37:29.827Z,5.10
2019-05-18T12:40:21.334Z,3.73
2019-05-18T12:43:30.927Z,5.13
2019-05-18T12:52:22.741Z,3.87
2019-05-18T12:55:12.314Z,4.30
2019-05-18T12:58:01.944Z,4.70
2019-05-18T13:00:51.259Z,3.23
2019-05-18T13:03:43.860Z,4.33
2019-05-18T13:06:26.104Z,3.50
2019-05-18T15:18:47.835Z,3.17
2019-05-18T15:27:45.834Z,3.93
2019-05-18T15:34:23.065Z,7.30
2019-05-18T15:37:30.402Z,4.87
2019-05-18T15:43:43.951Z,4.63
2019-05-18T15:49:32.385Z,4.40
2019-05-18T15:55:04.847Z,4.53
2019-05-18T15:57:36.310Z,3.63
2019-05-18T16:00:24.458Z,7.17
2019-05-18T16:03:14.568Z,4.80
2019-05-18T16:05:52.939Z,6.07
2019-05-18T16:08:31.525Z,4.70
2019-05-18T16:11:05.599Z,7.33
2019-05-18T16:13:36.256Z,7.90
2019-05-18T16:16:19.813Z,3.23
2019-05-18T16:18:50.570Z,5.10
2019-05-18T16:21:50.372Z,3.67
2019-05-18T16:24:31.440Z,4.10
2019-05-18T16:27:53.052Z,6.33
2019-05-18T16:30:45.639Z,3.47
2019-05-18T16:33:59.790Z,3.40
2019-05-18T16:37:39.091Z,3.00
2019-05-18T16:39:51.720Z,3.37
2019-05-18T16:46:08.717Z,4.07
2019-05-18T16:49:07.057Z,3.20
2019-05-18T16:52:03.821Z,4.97
2019-05-18T16:54:39.571Z,4.47
2019-05-18T16:57:18.296Z,4.60
2019-05-18T17:03:44.239Z,6.37
2019-05-18T17:06:22.598Z,7.07
2019-05-18T17:09:28.767Z,4.87
2019-05-18T17:12:01.813Z,5.90
2019-05-18T17:15:25.141Z,5.63
2019-05-18T17:18:02.811Z,5.67
2019-05-18T17:21:40.877Z,7.23
2019-05-18T17:24:11.593Z,7.00
2019-05-18T17:26:52.280Z,7.13
2019-05-18T17:29:17.632Z,7.50
2019-05-18T17:31:51.406Z,6.50
2019-05-18T17:34:22.111Z,5.43
2019-05-18T17:36:52.856Z,6.20
2019-05-18T17:39:23.668Z,5.97
2019-05-18T17:41:54.807Z,6.10
2019-05-18T17:44:25.986Z,7.17
2019-05-18T17:46:56.983Z,7.40
2019-05-18T17:49:28.019Z,6.80
2019-05-18T17:52:00.385Z,7.67
2019-05-18T17:54:31.923Z,5.87
2019-05-18T17:57:08.433Z,6.20
2019-05-18T17:59:37.031Z,5.73
2019-05-18T18:02:07.975Z,4.93
2019-05-18T18:04:45.103Z,4.93
2019-05-18T18:07:16.090Z,6.40
2019-05-18T18:09:50.481Z,5.10
2019-05-18T18:12:21.264Z,4.43
2019-05-18T18:14:52.102Z,6.63
2019-05-18T18:17:22.887Z,5.27
2019-05-18T18:19:54.215Z,4.00
2019-05-18T18:22:25.362Z,4.00
2019-05-18T18:24:58.661Z,4.47
2019-05-18T18:27:30.417Z,4.97
2019-05-18T18:30:03.959Z,3.73
2019-05-18T18:32:35.177Z,5.60
2019-05-18T18:35:08.737Z,5.40
2019-05-18T18:37:39.660Z,4.60
2019-05-18T18:40:10.708Z,6.43
2019-05-18T18:42:41.385Z,5.90
2019-05-18T18:45:13.533Z,7.40
2019-05-18T18:47:44.619Z,6.93
2019-05-18T18:50:18.273Z,6.87
2019-05-18T18:52:50.728Z,6.00
2019-05-18T18:55:22.570Z,6.07
2019-05-18T18:57:56.480Z,7.83
2019-05-18T19:00:28.659Z,5.07
2019-05-18T19:03:00.796Z,7.73
2019-05-18T19:05:31.677Z,6.00
2019-05-18T19:08:04.195Z,6.90
2019-05-18T19:10:38.110Z,3.73
2019-05-18T19:13:10.048Z,6.73
2019-05-18T19:15:41.307Z,7.83
2019-05-18T19:18:12.552Z,5.40
2019-05-18T19:20:43.583Z,5.83
2019-05-18T19:23:14.519Z,5.70
2019-05-18T19:25:45.657Z,7.70
2019-05-18T19:28:16.552Z,7.67
2019-05-18T19:30:47.335Z,5.60
2019-05-18T19:33:18.163Z,19.93
2019-05-18T19:35:50.439Z,42.23
2019-05-18T19:38:21.334Z,32.20
2019-05-18T19:40:53.425Z,30.00
2019-05-18T19:43:24.184Z,38.20
2019-05-18T19:45:55.010Z,33.97
2019-05-18T19:48:25.732Z,9.97
2019-05-18T19:50:56.533Z,6.23
2019-05-18T19:53:31.279Z,6.30
2019-05-18T19:56:03.731Z,6.07
2019-05-18T19:58:34.464Z,6.60
2019-05-18T20:01:05.808Z,8.17
2019-05-18T20:03:36.787Z,8.37
2019-05-18T20:06:10.266Z,8.63
2019-05-18T20:08:41.323Z,5.90
2019-05-18T20:11:13.125Z,5.83
2019-05-18T20:13:44.904Z,6.27
2019-05-18T20:16:15.607Z,5.80
2019-05-18T20:18:48.070Z,8.13
2019-05-18T20:21:19.282Z,5.10
2019-05-18T20:23:50.621Z,6.13
2019-05-18T20:26:23.223Z,8.23
2019-05-18T20:28:56.651Z,5.23
2019-05-18T20:31:27.117Z,3.93
2019-05-18T20:33:58.224Z,3.73
2019-05-18T20:36:29.085Z,4.63
2019-05-18T20:39:00.254Z,3.40
2019-05-18T20:41:36.263Z,3.93
2019-05-18T20:44:10.453Z,4.20
2019-05-18T20:46:52.295Z,5.67
2019-05-18T20:49:23.091Z,4.60
2019-05-18T20:51:53.940Z,4.10
2019-05-18T20:54:25.644Z,4.10
2019-05-18T20:56:58.366Z,4.23
2019-05-18T20:59:29.661Z,4.17
2019-05-18T21:02:01.692Z,5.20
2019-05-18T21:04:32.608Z,5.70
2019-05-18T21:07:03.615Z,6.10
2019-05-18T21:09:35.191Z,6.53
2019-05-18T21:12:07.307Z,5.43
2019-05-18T21:14:39.833Z,6.93
2019-05-18T21:17:11.036Z,5.20
2019-05-18T21:19:42.362Z,6.93
2019-05-18T21:22:13.135Z,5.20
2019-05-18T21:24:44.964Z,4.93
2019-05-18T21:27:16.088Z,6.13
2019-05-18T21:29:47.126Z,5.27
2019-05-18T21:32:19.329Z,4.63
2019-05-18T21:34:50.177Z,8.33
2019-05-18T21:37:22.479Z,6.17
2019-05-18T21:39:53.272Z,9.37
2019-05-18T21:42:26.659Z,6.37
2019-05-18T21:45:07.802Z,8.07
2019-05-18T21:47:38.639Z,6.80
2019-05-18T21:50:10.276Z,8.03
2019-05-18T21:52:42.130Z,6.50
2019-05-18T21:55:13.269Z,7.53
2019-05-18T21:57:44.297Z,6.77
2019-05-18T22:00:18.632Z,7.63
2019-05-18T22:02:49.800Z,9.33
2019-05-18T22:05:20.767Z,6.13
2019-05-18T22:07:51.504Z,7.50
2019-05-18T22:10:26.175Z,6.97
2019-05-18T22:12:57.458Z,6.97
2019-05-18T22:15:28.203Z,10.13
2019-05-18T22:18:06.540Z,16.30
2019-05-18T22:20:43.574Z,8.20
2019-05-18T22:23:11.438Z,5.80
2019-05-18T22:25:42.987Z,6.63
2019-05-18T22:28:13.846Z,9.10
2019-05-18T22:30:47.003Z,8.33
2019-05-18T22:33:18.510Z,7.33
2019-05-18T22:35:49.201Z,8.07
2019-05-18T22:38:20.357Z,7.17
2019-05-18T22:40:51.347Z,7.67
2019-05-18T22:43:22.096Z,7.17
2019-05-18T22:45:52.783Z,9.33
2019-05-18T22:48:23.625Z,7.23
2019-05-18T22:50:55.891Z,7.80
2019-05-18T22:53:26.629Z,8.37
2019-05-18T22:55:58.898Z,10.77
2019-05-18T22:58:29.807Z,7.03
2019-05-18T23:01:00.660Z,12.43
2019-05-18T23:03:31.815Z,8.40
2019-05-18T23:06:02.910Z,14.33
2019-05-18T23:08:34.857Z,9.67
2019-05-18T23:11:06.061Z,9.23
2019-05-18T23:13:37.017Z,9.87
2019-05-18T23:16:08.823Z,9.97
2019-05-18T23:18:54.467Z,11.20
2019-05-18T23:21:13.745Z,8.70
2019-05-18T23:23:44.995Z,10.67
2019-05-18T23:26:16.425Z,9.07
2019-05-18T23:28:48.279Z,8.07
2019-05-18T23:31:21.491Z,7.83
2019-05-18T23:33:53.731Z,7.53
2019-05-18T23:36:26.394Z,8.83
2019-05-18T23:38:58.841Z,8.67
2019-05-18T23:41:30.667Z,11.47
2019-05-18T23:44:02.166Z,7.80
2019-05-18T23:46:35.427Z,13.30
2019-05-18T23:49:10.907Z,8.20
2019-05-18T23:51:40.889Z,7.70
2019-05-18T23:54:11.868Z,8.03
2019-05-18T23:56:42.723Z,7.10
2019-05-18T23:59:13.608Z,8.27
